Time;durP1;ratioP1;P1;durP2;ratioP2;P2;SDS_P1;SDS_P2;PMS_P1;PMS_P2;Temp;Humidity;BMP_temperature;BMP_pressure;BME280_temperature;BME280_humidity;BME280_pressure;Samples;Min_cycle;Max_cycle;Signal;HPM_P1;HPM_P2
2023/05/09 00:01:13;;;;;;;5.68;2.85;;;10.60;79.70;;;;;;5088315;28;20028;-39
2023/05/09 00:03:39;;;;;;;10.60;3.28;;;10.50;79.80;;;;;;5089053;28;20073;-39
2023/05/09 00:06:06;;;;;;;6.50;3.95;;;10.40;80.50;;;;;;5089033;28;20020;-39
2023/05/09 00:08:32;;;;;;;7.97;3.20;;;10.40;80.50;;;;;;5088991;28;20477;-39
2023/05/09 00:10:58;;;;;;;6.25;3.47;;;10.40;80.90;;;;;;5088388;28;20039;-39
2023/05/09 00:13:24;;;;;;;11.80;4.05;;;10.40;81.00;;;;;;5088927;28;20385;-39
2023/05/09 00:15:52;;;;;;;12.80;4.05;;;10.40;82.30;;;;;;5087328;28;20028;-39
2023/05/09 00:18:19;;;;;;;11.25;3.97;;;10.30;81.40;;;;;;5088552;28;20028;-39
2023/05/09 00:20:44;;;;;;;7.35;3.75;;;10.30;81.80;;;;;;5087930;28;20153;-39
2023/05/09 00:23:10;;;;;;;6.72;4.43;;;10.30;82.10;;;;;;5088552;28;20540;-39
2023/05/09 00:25:35;;;;;;;7.63;3.92;;;10.20;82.60;;;;;;5088402;28;20020;-39
2023/05/09 00:28:01;;;;;;;7.28;3.85;;;10.20;82.80;;;;;;5088303;28;20034;-40
2023/05/09 00:30:26;;;;;;;9.05;5.20;;;10.10;83.30;;;;;;5087828;28;20023;-40
2023/05/09 00:32:52;;;;;;;7.25;4.45;;;10.10;83.90;;;;;;5088602;28;20481;-39
2023/05/09 00:35:18;;;;;;;8.90;4.53;;;10.10;84.30;;;;;;5088767;28;20048;-39
2023/05/09 00:37:43;;;;;;;6.63;3.83;;;10.10;84.70;;;;;;5088981;28;20500;-39
2023/05/09 00:40:09;;;;;;;14.98;4.80;;;10.00;85.20;;;;;;5091889;28;20043;-40
2023/05/09 00:42:35;;;;;;;9.30;4.43;;;10.00;86.40;;;;;;5091901;28;20440;-39
2023/05/09 00:45:01;;;;;;;12.82;4.15;;;10.00;86.40;;;;;;5092010;28;20059;-40
2023/05/09 00:47:28;;;;;;;7.35;5.10;;;9.90;87.00;;;;;;5084579;28;20032;-39
2023/05/09 00:49:55;;;;;;;8.45;4.72;;;9.90;87.40;;;;;;5071969;28;20021;-40
2023/05/09 00:52:24;;;;;;;12.00;4.68;;;9.90;88.50;;;;;;5071196;28;20020;-39
2023/05/09 00:54:51;;;;;;;7.32;4.78;;;9.90;88.60;;;;;;5071638;28;20039;-39
2023/05/09 00:57:17;;;;;;;7.03;4.38;;;9.90;90.00;;;;;;5071399;28;20038;-39
2023/05/09 00:59:43;;;;;;;13.30;5.38;;;9.90;90.10;;;;;;5071420;28;20408;-39
2023/05/09 01:02:08;;;;;;;6.60;4.50;;;9.90;90.40;;;;;;5071201;28;20521;-39
2023/05/09 01:04:34;;;;;;;5.72;4.32;;;9.90;90.80;;;;;;5071895;28;20025;-39
2023/05/09 01:07:20;;;;;;;7.80;5.28;;;9.80;91.10;;;;;;5071947;28;20432;-39
2023/05/09 01:10:12;;;;;;;7.57;4.55;;;9.80;91.50;;;;;;5071965;28;20111;-39
2023/05/09 01:13:02;;;;;;;8.02;5.38;;;9.80;92.20;;;;;;5070935;28;20545;-39
2023/05/09 01:15:39;;;;;;;7.70;5.20;;;9.70;92.90;;;;;;5071351;28;20032;-39
2023/05/09 01:18:24;;;;;;;6.95;4.82;;;9.60;93.30;;;;;;5071134;28;20470;-39
2023/05/09 01:20:56;;;;;;;7.05;5.60;;;9.60;93.90;;;;;;5070607;28;20028;-39
2023/05/09 01:23:43;;;;;;;8.88;5.55;;;9.60;94.40;;;;;;5071189;28;20611;-39
2023/05/09 01:26:11;;;;;;;9.93;5.97;;;9.60;95.40;;;;;;5070973;28;20043;-39
2023/05/09 01:28:49;;;;;;;10.10;5.72;;;9.50;96.10;;;;;;5071192;28;20050;-39
2023/05/09 01:31:16;;;;;;;7.85;5.22;;;9.50;97.00;;;;;;5070761;28;20021;-39
2023/05/09 01:33:44;;;;;;;6.60;4.95;;;9.50;98.00;;;;;;5071312;28;20474;-39
2023/05/09 01:36:15;;;;;;;10.02;5.45;;;9.50;99.30;;;;;;5071090;28;20265;-39
2023/05/09 01:38:42;;;;;;;7.85;5.80;;;9.40;99.90;;;;;;5071043;28;20058;-39
2023/05/09 01:41:11;;;;;;;7.72;5.57;;;9.40;99.90;;;;;;5052185;28;20037;-40
2023/05/09 01:43:38;;;;;;;11.13;5.70;;;9.30;99.90;;;;;;5070648;28;20058;-39
2023/05/09 01:46:04;;;;;;;10.38;5.90;;;9.30;99.90;;;;;;5070831;28;20103;-39
2023/05/09 01:48:30;;;;;;;8.50;6.13;;;9.30;99.90;;;;;;5086096;28;20024;-39
2023/05/09 01:50:58;;;;;;;10.20;6.00;;;9.30;99.90;;;;;;5089898;28;20031;-39
2023/05/09 01:53:26;;;;;;;7.47;5.85;;;9.20;99.90;;;;;;5088382;28;20024;-39
2023/05/09 01:55:52;;;;;;;11.25;5.53;;;9.20;99.90;;;;;;5087630;28;20413;-39
2023/05/09 01:58:20;;;;;;;9.55;5.78;;;9.20;99.90;;;;;;5090100;28;20027;-39
2023/05/09 02:00:47;;;;;;;16.58;6.05;;;9.20;99.90;;;;;;5070920;28;20044;-39
2023/05/09 02:03:13;;;;;;;8.50;5.93;;;9.20;99.90;;;;;;5090589;28;20035;-39
2023/05/09 02:05:40;;;;;;;7.25;5.85;;;9.20;99.90;;;;;;5090327;28;20026;-40
2023/05/09 02:08:07;;;;;;;8.38;6.03;;;9.10;99.90;;;;;;5087052;28;20020;-40
2023/05/09 02:10:34;;;;;;;12.35;7.30;;;9.10;99.90;;;;;;5089521;28;20023;-40
2023/05/09 02:12:59;;;;;;;9.57;6.53;;;9.10;99.90;;;;;;5089914;28;20027;-39
2023/05/09 02:15:25;;;;;;;10.65;6.35;;;9.10;99.90;;;;;;5088355;28;20034;-39
2023/05/09 02:17:51;;;;;;;9.48;6.28;;;9.10;99.90;;;;;;5089957;28;20055;-39
2023/05/09 02:20:16;;;;;;;17.65;6.20;;;9.10;99.90;;;;;;5090669;28;20028;-39
2023/05/09 02:22:42;;;;;;;12.50;6.82;;;9.00;99.90;;;;;;5090219;28;20048;-39
2023/05/09 02:25:09;;;;;;;8.98;6.25;;;9.00;99.90;;;;;;5089898;28;20048;-39
2023/05/09 02:27:37;;;;;;;8.02;6.25;;;9.00;99.90;;;;;;5089524;28;20047;-40
2023/05/09 02:30:07;;;;;;;9.73;7.60;;;9.10;99.90;;;;;;5086961;28;20027;-40
2023/05/09 02:32:34;;;;;;;11.23;7.43;;;9.00;99.90;;;;;;5089398;28;20043;-39
2023/05/09 02:35:00;;;;;;;7.05;6.35;;;9.00;99.90;;;;;;5087620;28;20077;-40
2023/05/09 02:37:27;;;;;;;11.82;7.20;;;9.00;99.90;;;;;;5104305;28;20074;-40
2023/05/09 02:39:53;;;;;;;12.70;7.13;;;9.00;99.90;;;;;;5088639;28;20111;-39
2023/05/09 02:42:28;;;;;;;9.65;6.80;;;9.00;99.90;;;;;;5088266;28;20033;-39
2023/05/09 02:44:55;;;;;;;11.50;7.82;;;9.00;99.90;;;;;;5086395;28;20022;-39
2023/05/09 02:47:21;;;;;;;8.88;6.72;;;8.90;99.90;;;;;;5082501;28;20028;-40
2023/05/09 02:49:46;;;;;;;11.45;7.82;;;8.90;99.90;;;;;;5069327;28;20020;-40
2023/05/09 02:52:12;;;;;;;13.50;8.20;;;8.90;99.90;;;;;;5068948;28;20085;-40
2023/05/09 02:54:38;;;;;;;10.52;7.32;;;9.00;99.90;;;;;;5069503;28;20086;-40
2023/05/09 02:57:04;;;;;;;12.57;7.32;;;8.90;99.90;;;;;;5069429;28;20432;-40
2023/05/09 02:59:30;;;;;;;10.77;7.65;;;8.90;99.90;;;;;;5068398;28;20606;-40
2023/05/09 03:01:56;;;;;;;13.20;7.25;;;8.90;99.90;;;;;;5066937;28;20167;-39
2023/05/09 03:04:21;;;;;;;10.98;7.03;;;8.90;99.90;;;;;;5041960;28;20290;-39
2023/05/09 03:06:47;;;;;;;8.90;7.20;;;8.90;99.90;;;;;;5049226;28;20025;-39
2023/05/09 03:09:13;;;;;;;11.55;8.07;;;8.90;99.90;;;;;;5068517;28;20016;-39
2023/05/09 03:11:38;;;;;;;10.85;7.50;;;8.90;99.90;;;;;;5068310;28;20025;-39
2023/05/09 03:14:04;;;;;;;9.70;6.80;;;8.90;99.90;;;;;;5068403;28;20142;-39
2023/05/09 03:16:30;;;;;;;12.65;7.80;;;8.80;99.90;;;;;;5068635;28;20029;-39
2023/05/09 03:18:55;;;;;;;9.75;7.60;;;8.80;99.90;;;;;;5068637;28;20052;-39
2023/05/09 03:21:21;;;;;;;11.50;7.72;;;8.80;99.90;;;;;;5049870;28;20024;-39
2023/05/09 03:23:46;;;;;;;15.73;7.63;;;8.80;99.90;;;;;;5068574;28;20020;-40
2023/05/09 03:26:12;;;;;;;11.05;7.07;;;8.80;99.90;;;;;;5069235;28;20024;-39
2023/05/09 03:28:38;;;;;;;12.18;8.57;;;8.80;99.90;;;;;;5050947;28;20020;-40
2023/05/09 03:31:04;;;;;;;12.20;8.70;;;8.80;99.90;;;;;;5068033;28;20056;-40
2023/05/09 03:33:30;;;;;;;10.80;8.40;;;8.80;99.90;;;;;;5068924;28;20394;-40
2023/05/09 03:35:55;;;;;;;8.43;7.32;;;8.80;99.90;;;;;;5068389;28;20027;-39
2023/05/09 03:38:23;;;;;;;11.60;7.60;;;8.80;99.90;;;;;;5068624;28;20969;-39
2023/05/09 03:40:49;;;;;;;13.95;8.50;;;8.80;99.90;;;;;;5049908;28;20335;-39
2023/05/09 03:43:15;;;;;;;10.77;7.93;;;8.80;99.90;;;;;;5068521;28;20024;-39
2023/05/09 03:45:40;;;;;;;12.95;8.80;;;8.80;99.90;;;;;;5050407;28;20406;-39
2023/05/09 03:48:08;;;;;;;13.77;9.30;;;8.80;99.90;;;;;;5081040;28;20032;-39
2023/05/09 03:50:34;;;;;;;10.35;7.75;;;8.80;99.90;;;;;;5087997;28;20016;-40
2023/05/09 03:53:00;;;;;;;14.40;8.07;;;8.80;99.90;;;;;;5088662;28;20028;-40
2023/05/09 03:55:25;;;;;;;12.55;9.02;;;8.80;99.90;;;;;;5088506;28;20508;-39
2023/05/09 03:57:51;;;;;;;13.00;8.85;;;8.80;99.90;;;;;;5088761;28;20203;-39
2023/05/09 04:00:16;;;;;;;13.00;8.48;;;8.80;99.90;;;;;;5088406;28;20030;-39
2023/05/09 04:02:42;;;;;;;12.15;7.95;;;8.80;99.90;;;;;;5088546;28;20020;-39
2023/05/09 04:05:08;;;;;;;11.95;8.55;;;8.80;99.90;;;;;;5088468;28;20393;-39
2023/05/09 04:07:33;;;;;;;11.73;8.48;;;8.80;99.90;;;;;;5087596;28;20071;-39
2023/05/09 04:09:59;;;;;;;13.18;8.27;;;8.80;99.90;;;;;;5088619;28;20052;-39
2023/05/09 04:12:25;;;;;;;11.52;7.68;;;8.80;99.90;;;;;;5088838;28;20121;-39
2023/05/09 04:14:51;;;;;;;13.07;8.52;;;8.80;99.90;;;;;;5092743;28;20043;-39
2023/05/09 04:17:16;;;;;;;10.63;8.90;;;8.80;99.90;;;;;;5093111;28;20024;-39
2023/05/09 04:19:42;;;;;;;13.68;8.30;;;8.80;99.90;;;;;;5092466;28;20024;-39
2023/05/09 04:22:07;;;;;;;12.63;8.45;;;8.80;99.90;;;;;;5091666;28;20024;-39
2023/05/09 04:24:33;;;;;;;10.13;7.85;;;8.90;99.90;;;;;;5092008;28;20013;-39
2023/05/09 04:26:59;;;;;;;11.45;7.70;;;8.90;99.90;;;;;;5097395;28;20117;-39
2023/05/09 04:29:25;;;;;;;12.80;8.50;;;8.90;99.90;;;;;;5092898;28;20050;-39
2023/05/09 04:31:50;;;;;;;10.48;7.82;;;8.90;99.90;;;;;;5091552;28;20028;-39
2023/05/09 04:34:16;;;;;;;10.95;8.35;;;8.90;99.90;;;;;;5106967;28;20031;-38
2023/05/09 04:36:41;;;;;;;11.95;9.15;;;8.90;99.90;;;;;;5090507;28;20068;-39
2023/05/09 04:39:07;;;;;;;13.13;8.48;;;8.90;99.90;;;;;;5091787;28;20107;-39
2023/05/09 04:41:33;;;;;;;14.57;8.65;;;8.90;99.90;;;;;;5091187;28;20207;-39
2023/05/09 04:43:58;;;;;;;10.68;8.20;;;9.00;99.90;;;;;;5091537;28;20035;-38
2023/05/09 04:46:24;;;;;;;11.43;8.45;;;9.00;99.90;;;;;;5091646;28;20035;-39
2023/05/09 04:48:50;;;;;;;13.63;9.27;;;9.00;99.90;;;;;;5091291;28;20046;-39
2023/05/09 04:51:15;;;;;;;13.00;8.48;;;9.10;99.90;;;;;;5089395;28;20066;-39
2023/05/09 04:53:41;;;;;;;13.43;9.38;;;9.10;99.90;;;;;;5091302;28;20028;-39
2023/05/09 04:56:07;;;;;;;12.18;7.75;;;9.10;99.90;;;;;;5091377;28;20060;-39
2023/05/09 04:58:37;;;;;;;12.10;9.20;;;9.20;99.90;;;;;;5090609;28;20415;-39
2023/05/09 05:01:05;;;;;;;12.88;9.02;;;9.20;99.90;;;;;;5091390;28;20020;-39
2023/05/09 05:03:31;;;;;;;11.07;8.25;;;9.20;99.90;;;;;;5091550;28;20034;-39
2023/05/09 05:05:57;;;;;;;10.18;8.07;;;9.20;99.90;;;;;;5091649;28;20032;-39
2023/05/09 05:08:22;;;;;;;14.45;8.10;;;9.30;99.90;;;;;;5089335;28;20021;-39
2023/05/09 05:10:48;;;;;;;14.13;8.68;;;9.30;99.90;;;;;;5087516;28;20031;-39
2023/05/09 05:13:14;;;;;;;10.57;8.25;;;9.40;99.90;;;;;;5090638;28;20034;-39
2023/05/09 05:15:40;;;;;;;11.00;8.55;;;9.50;99.90;;;;;;5088589;28;20303;-38
2023/05/09 05:18:06;;;;;;;12.13;8.75;;;9.50;99.90;;;;;;5091683;28;20054;-39
2023/05/09 05:20:31;;;;;;;12.80;8.50;;;9.50;99.90;;;;;;5090115;28;20420;-39
2023/05/09 05:22:57;;;;;;;15.75;8.20;;;9.60;99.90;;;;;;5091071;28;20342;-39
2023/05/09 05:25:23;;;;;;;11.25;7.93;;;9.60;99.90;;;;;;5090343;28;20024;-39
2023/05/09 05:27:49;;;;;;;11.27;8.50;;;9.70;99.90;;;;;;5091207;28;20053;-39
2023/05/09 05:30:15;;;;;;;10.77;8.18;;;9.80;99.90;;;;;;5089662;28;20031;-39
2023/05/09 05:32:41;;;;;;;12.45;8.30;;;9.80;99.90;;;;;;5092166;28;20047;-39
2023/05/09 05:35:08;;;;;;;10.63;7.97;;;9.90;99.90;;;;;;5094507;28;20026;-39
2023/05/09 05:37:34;;;;;;;15.13;8.80;;;10.00;99.90;;;;;;5089772;28;20020;-39
2023/05/09 05:39:59;;;;;;;12.38;7.63;;;10.00;99.90;;;;;;5089219;28;20028;-39
2023/05/09 05:42:25;;;;;;;13.75;8.95;;;10.10;99.90;;;;;;5090178;28;20531;-39
2023/05/09 05:44:50;;;;;;;9.05;7.57;;;10.10;99.90;;;;;;5090183;28;20393;-39
2023/05/09 05:47:16;;;;;;;11.02;8.07;;;10.20;99.90;;;;;;5086158;28;20239;-39
2023/05/09 05:49:41;;;;;;;12.77;8.25;;;10.30;99.90;;;;;;5090434;28;20027;-39
2023/05/09 05:52:07;;;;;;;14.75;8.30;;;10.40;99.90;;;;;;5089991;28;20381;-39
2023/05/09 05:54:32;;;;;;;13.15;8.18;;;10.50;99.90;;;;;;5090358;28;20495;-39
2023/05/09 05:56:58;;;;;;;12.35;8.20;;;10.60;99.90;;;;;;5089853;28;20043;-39
2023/05/09 05:59:23;;;;;;;13.38;8.07;;;10.60;99.90;;;;;;5081509;28;20111;-39
2023/05/09 06:01:49;;;;;;;14.05;8.45;;;10.60;99.90;;;;;;5089765;28;20024;-39
2023/05/09 06:04:15;;;;;;;9.52;7.25;;;10.60;99.90;;;;;;5090024;28;20077;-39
2023/05/09 06:06:41;;;;;;;13.55;7.95;;;10.70;99.90;;;;;;5088875;28;20070;-39
2023/05/09 06:09:06;;;;;;;9.63;6.93;;;10.70;99.90;;;;;;5088121;28;20012;-39
2023/05/09 06:11:32;;;;;;;11.63;7.13;;;10.80;99.90;;;;;;5091519;28;20016;-39
2023/05/09 06:13:57;;;;;;;11.20;7.43;;;10.90;99.90;;;;;;5092988;28;20027;-39
2023/05/09 06:16:23;;;;;;;12.23;7.15;;;11.00;99.90;;;;;;5091133;28;20523;-39
2023/05/09 06:18:49;;;;;;;10.43;7.22;;;11.10;99.90;;;;;;5089550;28;20031;-39
2023/05/09 06:21:14;;;;;;;9.60;7.63;;;11.20;99.90;;;;;;5089083;28;20460;-39
2023/05/09 06:23:40;;;;;;;9.95;7.75;;;11.30;99.90;;;;;;5089949;28;20088;-40
2023/05/09 06:26:05;;;;;;;9.20;6.72;;;11.40;99.90;;;;;;5089385;28;20020;-39
2023/05/09 06:28:31;;;;;;;11.60;7.45;;;11.50;99.90;;;;;;5089031;28;20401;-39
2023/05/09 06:30:56;;;;;;;13.95;8.05;;;11.60;99.90;;;;;;5088834;28;20046;-39
2023/05/09 06:33:22;;;;;;;8.15;6.80;;;11.70;99.90;;;;;;5089370;28;20442;-39
2023/05/09 06:35:47;;;;;;;8.70;6.53;;;11.80;99.90;;;;;;5099044;28;20039;-39
2023/05/09 06:38:13;;;;;;;12.25;7.18;;;11.90;99.90;;;;;;5089147;28;20382;-39
2023/05/09 06:40:38;;;;;;;15.27;7.05;;;12.00;99.90;;;;;;5086798;28;20032;-39
2023/05/09 06:43:04;;;;;;;10.30;6.18;;;12.00;99.90;;;;;;5088769;28;20020;-39
2023/05/09 06:45:29;;;;;;;8.90;6.45;;;12.10;99.90;;;;;;5089293;28;20115;-39
2023/05/09 06:47:55;;;;;;;9.10;7.00;;;12.20;99.90;;;;;;5087947;28;20024;-39
2023/05/09 06:50:21;;;;;;;14.68;7.05;;;12.30;99.90;;;;;;5088750;28;20028;-39
2023/05/09 06:52:47;;;;;;;11.35;6.65;;;12.40;99.90;;;;;;5086891;28;20034;-39
2023/05/09 06:55:12;;;;;;;10.18;6.82;;;12.50;99.90;;;;;;5089194;28;20433;-39
2023/05/09 06:57:39;;;;;;;10.07;6.70;;;12.60;99.90;;;;;;5088557;28;20030;-39
2023/05/09 07:00:05;;;;;;;9.73;7.15;;;12.70;99.90;;;;;;5092410;28;20024;-40
2023/05/09 07:02:31;;;;;;;8.02;6.45;;;12.80;99.90;;;;;;5088204;28;20051;-39
2023/05/09 07:04:56;;;;;;;11.23;6.38;;;12.90;99.90;;;;;;5088978;28;20058;-39
2023/05/09 07:07:22;;;;;;;10.75;6.38;;;13.00;99.90;;;;;;5092196;28;20077;-39
2023/05/09 07:09:47;;;;;;;9.90;6.22;;;13.20;99.90;;;;;;5087880;28;20488;-39
2023/05/09 07:12:13;;;;;;;8.65;6.03;;;13.30;99.90;;;;;;5086922;28;20081;-40
2023/05/09 07:14:40;;;;;;;10.18;6.18;;;13.30;99.90;;;;;;5089657;28;20032;-39
2023/05/09 07:17:07;;;;;;;11.30;7.05;;;13.50;99.90;;;;;;5088822;28;20032;-39
2023/05/09 07:19:33;;;;;;;11.57;6.82;;;13.60;99.90;;;;;;5088027;28;20043;-39
2023/05/09 07:21:59;;;;;;;9.25;6.82;;;13.70;99.90;;;;;;5086779;28;20017;-39
2023/05/09 07:24:24;;;;;;;12.90;6.63;;;13.80;99.90;;;;;;5083224;28;20020;-39
2023/05/09 07:26:50;;;;;;;9.63;6.05;;;14.00;99.90;;;;;;5087525;28;20081;-39
2023/05/09 07:29:17;;;;;;;8.00;5.82;;;14.10;99.90;;;;;;5087980;28;20024;-39
2023/05/09 07:31:42;;;;;;;6.93;5.25;;;14.20;98.60;;;;;;5087720;28;20489;-39
2023/05/09 07:34:08;;;;;;;8.07;5.53;;;14.30;99.20;;;;;;5088985;28;20085;-39
2023/05/09 07:36:33;;;;;;;8.45;5.68;;;14.40;99.90;;;;;;5098191;28;20024;-39
2023/05/09 07:38:59;;;;;;;9.73;5.97;;;14.70;98.90;;;;;;5086879;28;20366;-39
2023/05/09 07:41:25;;;;;;;10.30;5.88;;;14.90;99.20;;;;;;5087378;28;20059;-39
2023/05/09 07:43:51;;;;;;;7.13;5.55;;;15.00;97.20;;;;;;5087284;28;20235;-39
2023/05/09 07:46:16;;;;;;;11.38;5.88;;;15.10;97.60;;;;;;5087275;28;20048;-39
2023/05/09 07:48:42;;;;;;;7.03;5.60;;;15.30;96.70;;;;;;5088888;28;20024;-40
2023/05/09 07:51:07;;;;;;;10.32;5.20;;;15.50;97.60;;;;;;5098626;28;20019;-39
2023/05/09 07:53:33;;;;;;;9.57;5.45;;;15.70;98.70;;;;;;5087617;28;20020;-39
2023/05/09 07:55:59;;;;;;;7.53;5.38;;;15.90;96.90;;;;;;5088865;28;20027;-39
2023/05/09 07:58:25;;;;;;;7.95;5.75;;;16.10;94.30;;;;;;5090957;28;20409;-40
2023/05/09 08:00:50;;;;;;;6.82;5.18;;;16.30;93.60;;;;;;5091650;28;20323;-39
2023/05/09 08:03:16;;;;;;;10.80;5.75;;;16.40;93.80;;;;;;5106324;28;20026;-39
2023/05/09 08:05:41;;;;;;;9.05;5.28;;;16.70;93.00;;;;;;5105860;28;20037;-40
2023/05/09 08:08:07;;;;;;;8.27;5.38;;;16.80;92.10;;;;;;5102794;28;20012;-40
2023/05/09 08:10:32;;;;;;;9.73;5.13;;;17.10;90.90;;;;;;5087219;28;20389;-40
2023/05/09 08:12:58;;;;;;;8.07;5.55;;;17.40;90.70;;;;;;5087191;28;20383;-39
2023/05/09 08:15:24;;;;;;;7.15;5.25;;;17.70;90.50;;;;;;5088462;28;20036;-40
2023/05/09 08:17:50;;;;;;;8.55;4.72;;;17.60;89.50;;;;;;5103886;28;20027;-39
2023/05/09 08:20:16;;;;;;;7.85;5.22;;;18.20;87.50;;;;;;5107807;28;20381;-40
2023/05/09 08:22:41;;;;;;;8.02;4.82;;;18.50;87.60;;;;;;5107605;28;20385;-40
2023/05/09 08:25:07;;;;;;;7.95;5.05;;;19.10;83.20;;;;;;5096102;28;20031;-41
2023/05/09 08:27:33;;;;;;;6.40;3.70;;;19.80;79.40;;;;;;5087122;28;20023;-41
2023/05/09 08:29:58;;;;;;;8.10;4.55;;;20.70;78.10;;;;;;5087045;28;20028;-41
2023/05/09 08:32:24;;;;;;;7.97;4.32;;;22.10;72.70;;;;;;5087028;28;20032;-40
2023/05/09 08:34:49;;;;;;;7.70;4.07;;;23.40;70.30;;;;;;5087040;28;20024;-39
2023/05/09 08:37:15;;;;;;;7.15;4.25;;;25.80;61.40;;;;;;5103640;28;20258;-39
2023/05/09 08:39:41;;;;;;;5.93;3.90;;;26.60;56.70;;;;;;5107482;28;20024;-39
2023/05/09 08:42:07;;;;;;;5.72;3.88;;;27.50;55.80;;;;;;5107258;28;20094;-40
2023/05/09 08:44:33;;;;;;;3.65;3.33;;;28.00;53.90;;;;;;5099417;28;20017;-41
2023/05/09 08:47:01;;;;;;;4.18;3.75;;;28.90;52.50;;;;;;5086717;28;20032;-40
2023/05/09 08:49:27;;;;;;;10.40;3.50;;;29.90;50.70;;;;;;5086991;28;20103;-40
2023/05/09 08:51:53;;;;;;;4.97;3.13;;;30.70;49.50;;;;;;5062102;28;20112;-40
2023/05/09 08:54:20;;;;;;;6.18;3.75;;;31.30;48.40;;;;;;5086805;28;20027;-39
2023/05/09 08:56:46;;;;;;;7.00;3.72;;;31.90;46.50;;;;;;5082666;28;20016;-40
2023/05/09 08:59:12;;;;;;;5.90;3.35;;;31.10;45.30;;;;;;5084124;28;20025;-40
2023/05/09 09:01:39;;;;;;;4.32;3.58;;;31.30;46.00;;;;;;5077790;28;20101;-41
2023/05/09 09:04:06;;;;;;;7.18;2.95;;;31.30;46.80;;;;;;5087056;28;20027;-42
2023/05/09 09:06:35;;;;;;;6.20;3.40;;;32.20;47.40;;;;;;5091262;28;20305;-40
2023/05/09 09:09:04;;;;;;;4.88;2.75;;;33.20;45.20;;;;;;5090431;28;20085;-40
2023/05/09 09:11:31;;;;;;;5.47;3.13;;;33.50;43.80;;;;;;5089557;28;20402;-39
2023/05/09 09:14:00;;;;;;;6.03;2.65;;;34.60;42.20;;;;;;5081405;28;20040;-40
2023/05/09 09:16:28;;;;;;;5.40;3.08;;;35.20;41.10;;;;;;5071694;28;20097;-39
2023/05/09 09:18:55;;;;;;;5.35;3.15;;;35.10;39.90;;;;;;5067958;28;20060;-40
2023/05/09 09:21:22;;;;;;;7.43;3.13;;;34.50;39.70;;;;;;5053498;28;20032;-41
2023/05/09 09:23:48;;;;;;;3.53;2.80;;;34.30;39.70;;;;;;5068525;28;20004;-40
2023/05/09 09:26:14;;;;;;;6.30;3.17;;;33.00;40.80;;;;;;5068605;28;20039;-39
2023/05/09 09:28:41;;;;;;;4.35;3.47;;;32.50;41.30;;;;;;5052759;28;20021;-40
2023/05/09 09:31:30;;;;;;;5.65;3.00;;;32.50;41.10;;;;;;5071295;28;20146;-40
2023/05/09 09:34:00;;;;;;;7.03;3.57;;;32.00;43.20;;;;;;5068244;28;20498;-39
2023/05/09 09:36:31;;;;;;;5.55;3.22;;;31.90;41.00;;;;;;5071176;28;20051;-39
2023/05/09 09:39:00;;;;;;;7.38;3.90;;;31.20;43.70;;;;;;5065929;28;20029;-40
2023/05/09 09:41:34;;;;;;;5.47;2.88;;;32.10;41.40;;;;;;5070916;28;20154;-39
2023/05/09 09:44:09;;;;;;;3.10;2.80;;;32.30;41.40;;;;;;5068315;28;20039;-39
2023/05/09 09:46:52;;;;;;;4.20;3.42;;;32.40;41.40;;;;;;5075282;28;20035;-39
2023/05/09 09:49:20;;;;;;;11.13;4.25;;;32.20;40.60;;;;;;5089672;28;20020;-39
2023/05/09 09:51:50;;;;;;;5.22;3.38;;;32.50;41.90;;;;;;5089122;28;20020;-39
2023/05/09 09:54:15;;;;;;;7.47;3.78;;;32.80;40.30;;;;;;5089751;28;20099;-39
2023/05/09 09:56:47;;;;;;;5.15;3.22;;;33.10;41.60;;;;;;5089303;28;20099;-39
2023/05/09 09:59:14;;;;;;;7.63;3.30;;;32.50;39.40;;;;;;5091598;28;20012;-39
2023/05/09 10:01:58;;;;;;;3.88;3.30;;;32.60;40.50;;;;;;5087137;28;20047;-39
2023/05/09 10:04:25;;;;;;;3.45;2.97;;;32.90;39.90;;;;;;5090672;28;20107;-39
2023/05/09 10:06:55;;;;;;;5.80;2.95;;;33.40;40.40;;;;;;5089431;28;20016;-40
2023/05/09 10:09:25;;;;;;;5.80;2.90;;;33.30;39.20;;;;;;5089413;28;20013;-40
2023/05/09 10:11:53;;;;;;;4.32;3.17;;;34.10;38.70;;;;;;5088836;28;20016;-39
2023/05/09 10:14:24;;;;;;;5.53;3.40;;;31.90;39.50;;;;;;5089810;28;20016;-39
2023/05/09 10:16:53;;;;;;;4.53;3.40;;;31.60;40.90;;;;;;5092084;28;20028;-40
2023/05/09 10:19:20;;;;;;;6.38;3.30;;;32.00;40.00;;;;;;5089762;28;20020;-40
2023/05/09 10:21:51;;;;;;;4.20;3.30;;;32.60;40.10;;;;;;5089243;28;20495;-40
2023/05/09 10:24:25;;;;;;;9.95;3.40;;;32.60;40.60;;;;;;5088969;28;20052;-40
2023/05/09 10:26:57;;;;;;;6.53;3.58;;;33.00;39.80;;;;;;5089409;28;20111;-40
2023/05/09 10:29:26;;;;;;;5.18;3.30;;;32.00;40.30;;;;;;5087996;28;20644;-39
2023/05/09 10:31:57;;;;;;;5.32;3.40;;;32.10;41.30;;;;;;5088477;28;20477;-40
2023/05/09 10:34:25;;;;;;;6.85;3.65;;;33.10;42.70;;;;;;5088223;28;20468;-40
2023/05/09 10:36:51;;;;;;;5.90;3.63;;;33.00;39.80;;;;;;5087143;28;20489;-40
2023/05/09 10:39:16;;;;;;;7.18;3.08;;;33.10;41.10;;;;;;5089042;28;20016;-40
2023/05/09 10:41:43;;;;;;;5.15;3.28;;;33.20;39.70;;;;;;5088513;28;20019;-40
2023/05/09 10:44:09;;;;;;;5.15;3.35;;;32.50;39.50;;;;;;5087924;28;20032;-39
2023/05/09 10:46:35;;;;;;;7.00;4.15;;;31.50;42.50;;;;;;5088781;28;20089;-40
2023/05/09 10:49:01;;;;;;;6.35;3.53;;;32.60;41.10;;;;;;5085899;28;20107;-39
2023/05/09 10:51:27;;;;;;;5.35;3.00;;;33.20;40.90;;;;;;5089813;28;20384;-39
2023/05/09 10:53:55;;;;;;;5.72;3.63;;;33.20;39.90;;;;;;5090843;28;20024;-40
2023/05/09 10:56:34;;;;;;;4.95;3.38;;;32.30;40.80;;;;;;5087916;28;20024;-40
2023/05/09 10:59:00;;;;;;;5.30;4.13;;;32.30;41.80;;;;;;5085441;28;20034;-39
2023/05/09 11:01:35;;;;;;;22.90;20.42;;;32.30;42.80;;;;;;5084862;28;20024;-41
2023/05/09 11:04:11;;;;;;;22.92;17.35;;;33.10;41.20;;;;;;5085840;28;20381;-40
2023/05/09 11:06:51;;;;;;;6.00;4.45;;;32.70;44.90;;;;;;5083850;28;20469;-41
2023/05/09 11:09:37;;;;;;;6.03;4.35;;;33.60;40.70;;;;;;5086103;28;20028;-40
2023/05/09 11:12:06;;;;;;;5.80;3.75;;;32.90;40.30;;;;;;5086774;28;20095;-39
2023/05/09 11:14:34;;;;;;;6.20;3.33;;;33.20;41.00;;;;;;5078767;28;20020;-40
2023/05/09 11:17:03;;;;;;;6.93;3.70;;;32.50;41.30;;;;;;5088971;28;20088;-41
2023/05/09 11:19:37;;;;;;;12.75;3.67;;;32.70;40.90;;;;;;5088626;28;20418;-40
2023/05/09 11:22:32;;;;;;;9.02;3.58;;;32.70;40.60;;;;;;5091447;28;20020;-41
2023/05/09 11:25:00;;;;;;;5.80;3.50;;;32.60;40.30;;;;;;5081012;28;20548;-40
2023/05/09 11:27:30;;;;;;;6.95;3.63;;;33.10;40.80;;;;;;5088942;28;20464;-41
2023/05/09 11:29:58;;;;;;;7.40;3.80;;;33.00;42.20;;;;;;5088754;28;20707;-40
2023/05/09 11:32:30;;;;;;;6.53;3.58;;;32.30;40.80;;;;;;5088496;28;20470;-40
2023/05/09 11:35:08;;;;;;;6.55;3.70;;;32.50;41.30;;;;;;5087118;28;20027;-40
2023/05/09 11:37:59;;;;;;;8.98;3.72;;;32.10;40.40;;;;;;5088635;28;20028;-40
2023/05/09 11:40:25;;;;;;;10.93;3.35;;;32.10;40.90;;;;;;5078026;28;20405;-40
2023/05/09 11:42:54;;;;;;;8.93;3.72;;;31.90;41.30;;;;;;5088314;28;20031;-40
2023/05/09 11:45:24;;;;;;;5.25;3.30;;;31.00;41.50;;;;;;5088375;28;20389;-40
2023/05/09 11:47:50;;;;;;;4.32;2.85;;;31.90;42.50;;;;;;5095816;28;20529;-40
2023/05/09 11:50:19;;;;;;;5.63;3.10;;;31.50;42.20;;;;;;5088717;28;20494;-40
2023/05/09 11:52:46;;;;;;;5.70;3.88;;;31.20;41.60;;;;;;5086721;28;20525;-39
2023/05/09 11:55:14;;;;;;;6.75;3.50;;;30.90;41.60;;;;;;5088286;28;20032;-39
2023/05/09 11:57:41;;;;;;;6.45;3.10;;;30.50;42.30;;;;;;5088115;28;20021;-39
2023/05/09 12:00:09;;;;;;;9.48;3.45;;;30.40;42.30;;;;;;5088295;28;20024;-39
2023/05/09 12:02:35;;;;;;;7.22;3.78;;;30.20;42.50;;;;;;5088524;28;20450;-39
2023/05/09 12:05:09;;;;;;;6.18;3.33;;;29.80;44.10;;;;;;5086157;28;20024;-39
2023/05/09 12:07:36;;;;;;;10.35;3.60;;;29.60;43.60;;;;;;5093535;28;20033;-39
2023/05/09 12:10:08;;;;;;;7.20;3.97;;;28.80;43.40;;;;;;5087916;28;20540;-41
2023/05/09 12:12:44;;;;;;;9.43;3.45;;;28.00;44.80;;;;;;5088126;28;20034;-39
2023/05/09 12:15:12;;;;;;;7.65;3.65;;;28.00;48.30;;;;;;5087850;28;20051;-39
2023/05/09 12:17:38;;;;;;;8.68;3.50;;;27.70;46.40;;;;;;5087957;28;20028;-39
2023/05/09 12:20:04;;;;;;;4.63;3.90;;;27.30;46.50;;;;;;5088088;28;20544;-39
2023/05/09 12:22:31;;;;;;;4.10;3.40;;;26.80;46.60;;;;;;5087977;28;20024;-39
2023/05/09 12:25:00;;;;;;;6.45;3.80;;;26.50;47.70;;;;;;5075251;28;20534;-39
2023/05/09 12:27:27;;;;;;;9.70;3.85;;;26.60;50.10;;;;;;5087714;28;20036;-39
2023/05/09 12:29:53;;;;;;;5.15;3.78;;;26.40;46.50;;;;;;5088255;28;20025;-39
2023/05/09 12:32:19;;;;;;;6.13;3.58;;;26.40;47.70;;;;;;5087715;28;20036;-39
2023/05/09 12:34:47;;;;;;;4.63;3.40;;;26.10;47.10;;;;;;5092401;28;20503;-39
2023/05/09 12:37:15;;;;;;;6.65;4.00;;;26.20;49.40;;;;;;5091963;28;20032;-39
2023/05/09 12:39:40;;;;;;;6.75;3.45;;;26.30;49.10;;;;;;5094693;28;20039;-39
2023/05/09 12:42:12;;;;;;;6.90;3.35;;;26.40;48.50;;;;;;5091533;28;20477;-39
2023/05/09 12:44:37;;;;;;;7.78;3.63;;;26.20;49.10;;;;;;5094127;28;20124;-39
2023/05/09 12:47:04;;;;;;;7.65;3.35;;;26.20;51.30;;;;;;5078303;28;20024;-39